Time;durP1;ratioP1;P1;durP2;ratioP2;P2;SDS_P1;SDS_P2;PMS_P1;PMS_P2;Temp;Humidity;BMP_temperature;BMP_pressure;BME280_temperature;BME280_humidity;BME280_pressure;Samples;Min_cycle;Max_cycle;Signal;HPM_P1;HPM_P2
2022/07/06 00:01:15;;;;;;;10.90;2.23;;;14.50;82.90;;;;;;5056700;28;20226;-87
2022/07/06 00:03:41;;;;;;;11.37;2.53;;;14.50;82.70;;;;;;5057778;28;20184;-87
2022/07/06 00:06:07;;;;;;;8.37;2.23;;;14.50;82.70;;;;;;5056578;28;20183;-87
2022/07/06 00:08:32;;;;;;;4.37;1.80;;;14.50;82.70;;;;;;5056404;28;20175;-86
2022/07/06 00:10:58;;;;;;;4.87;1.90;;;14.50;82.90;;;;;;5057180;28;20284;-88
2022/07/06 00:13:24;;;;;;;6.93;2.17;;;14.50;83.10;;;;;;5056935;28;20259;-88
2022/07/06 00:15:49;;;;;;;10.37;2.37;;;14.40;83.30;;;;;;5057412;28;20207;-88
2022/07/06 00:18:15;;;;;;;6.80;2.17;;;14.40;83.30;;;;;;5055552;28;20237;-88
2022/07/06 00:20:40;;;;;;;8.17;2.47;;;14.50;83.10;;;;;;5054964;28;20207;-88
2022/07/06 00:23:06;;;;;;;9.30;2.30;;;14.60;83.00;;;;;;5055019;28;20172;-88
2022/07/06 00:25:31;;;;;;;7.57;2.60;;;14.40;83.20;;;;;;5055199;28;20194;-87
2022/07/06 00:27:57;;;;;;;7.23;1.97;;;14.40;83.30;;;;;;5056283;28;20179;-87
2022/07/06 00:30:22;;;;;;;10.50;2.20;;;14.30;83.20;;;;;;5055815;28;20176;-87
2022/07/06 00:32:48;;;;;;;7.23;1.77;;;14.20;83.40;;;;;;5056365;28;20172;-88
2022/07/06 00:35:14;;;;;;;11.50;2.17;;;14.20;83.50;;;;;;5054354;28;20207;-88
2022/07/06 00:37:39;;;;;;;10.10;2.87;;;14.20;83.80;;;;;;5054269;28;20171;-86
2022/07/06 00:40:06;;;;;;;5.00;1.77;;;14.20;83.80;;;;;;5054111;28;20171;-86
2022/07/06 00:42:42;;;;;;;8.50;2.60;;;14.20;83.90;;;;;;5054099;28;20203;-89
2022/07/06 00:45:09;;;;;;;10.27;2.30;;;14.10;84.00;;;;;;5053172;28;20195;-90
2022/07/06 00:47:35;;;;;;;11.70;2.50;;;14.00;84.10;;;;;;5054381;28;20176;-90
2022/07/06 00:50:14;;;;;;;7.33;2.43;;;14.10;84.20;;;;;;5053703;28;20199;-89
2022/07/06 00:52:44;;;;;;;6.67;2.13;;;14.00;84.30;;;;;;5053751;28;20195;-89
2022/07/06 00:55:10;;;;;;;7.83;2.43;;;14.00;84.70;;;;;;5053285;28;20202;-90
2022/07/06 00:57:37;;;;;;;11.77;2.47;;;14.00;84.90;;;;;;5053677;28;20182;-90
2022/07/06 01:00:09;;;;;;;6.63;2.33;;;14.00;84.60;;;;;;5053399;28;20200;-90
2022/07/06 01:02:35;;;;;;;12.40;2.50;;;14.00;84.40;;;;;;5054055;28;20196;-89
2022/07/06 01:05:04;;;;;;;7.53;2.30;;;14.00;84.30;;;;;;5054561;28;20210;-89
2022/07/06 01:07:30;;;;;;;8.93;2.50;;;14.10;84.20;;;;;;5054094;28;20594;-89
2022/07/06 01:09:56;;;;;;;6.80;2.10;;;14.10;83.90;;;;;;5053441;28;20262;-89
2022/07/06 01:12:21;;;;;;;8.77;2.20;;;14.10;83.80;;;;;;5053427;28;20219;-89
2022/07/06 01:14:47;;;;;;;5.60;1.83;;;14.10;83.80;;;;;;5053486;28;20207;-90
2022/07/06 01:17:14;;;;;;;5.70;2.10;;;14.20;83.60;;;;;;5053017;28;20172;-90
2022/07/06 01:19:40;;;;;;;6.73;2.30;;;14.20;83.60;;;;;;5053318;28;20363;-89
2022/07/06 01:22:06;;;;;;;13.03;2.50;;;14.20;83.60;;;;;;5053528;28;20304;-90
2022/07/06 01:24:31;;;;;;;3.77;1.80;;;14.20;83.70;;;;;;5053487;28;20253;-89
2022/07/06 01:26:57;;;;;;;7.03;2.30;;;14.20;83.70;;;;;;5053382;28;20191;-89
2022/07/06 01:29:23;;;;;;;7.83;2.13;;;14.20;84.00;;;;;;5053287;28;20179;-90
2022/07/06 01:31:50;;;;;;;8.80;2.70;;;14.20;84.20;;;;;;5053415;28;20200;-90
2022/07/06 01:34:17;;;;;;;9.13;2.50;;;14.20;84.10;;;;;;5052716;28;20651;-89
2022/07/06 01:36:43;;;;;;;8.17;2.37;;;14.20;83.80;;;;;;5052923;28;20180;-90
2022/07/06 01:39:09;;;;;;;11.23;2.10;;;14.20;83.60;;;;;;5053471;28;20263;-90
2022/07/06 01:41:35;;;;;;;7.83;2.10;;;14.20;83.30;;;;;;5052597;28;20646;-89
2022/07/06 01:44:01;;;;;;;7.30;2.13;;;14.30;83.20;;;;;;5053056;28;20275;-89
2022/07/06 01:46:27;;;;;;;5.53;2.27;;;14.20;83.20;;;;;;5055383;28;20211;-89
2022/07/06 01:48:52;;;;;;;6.33;2.00;;;14.20;83.10;;;;;;5056817;28;20222;-89
2022/07/06 01:51:18;;;;;;;8.90;2.40;;;14.30;83.20;;;;;;5057044;28;20196;-89
2022/07/06 01:53:44;;;;;;;11.40;3.13;;;14.30;83.20;;;;;;5056290;28;20327;-90
2022/07/06 01:56:11;;;;;;;9.87;2.20;;;14.20;83.10;;;;;;5056217;28;20222;-89
2022/07/06 01:58:37;;;;;;;7.07;2.10;;;14.30;83.10;;;;;;5056167;28;20263;-89
2022/07/06 02:01:10;;;;;;;8.17;2.00;;;14.40;83.00;;;;;;5057363;28;20188;-90
2022/07/06 02:03:37;;;;;;;4.40;2.00;;;14.40;83.20;;;;;;5058172;28;20644;-89
2022/07/06 02:06:03;;;;;;;4.13;1.70;;;14.40;83.20;;;;;;5056451;28;20558;-90
2022/07/06 02:08:29;;;;;;;5.53;1.77;;;14.40;83.90;;;;;;5056501;28;20180;-90
2022/07/06 02:10:55;;;;;;;6.17;1.57;;;14.50;84.00;;;;;;5056488;28;20199;-90
2022/07/06 02:13:20;;;;;;;5.27;1.77;;;14.50;83.80;;;;;;5057111;28;20211;-90
2022/07/06 02:15:46;;;;;;;4.57;1.63;;;14.40;84.30;;;;;;5056030;28;20176;-90
2022/07/06 02:18:11;;;;;;;7.70;1.63;;;14.30;84.80;;;;;;5056231;28;20215;-91
2022/07/06 02:20:37;;;;;;;4.38;1.73;;;14.30;84.90;;;;;;5057303;28;20195;-90
2022/07/06 02:23:03;;;;;;;4.77;1.90;;;14.40;84.90;;;;;;5056113;28;20176;-90
2022/07/06 02:25:29;;;;;;;3.60;1.63;;;14.30;85.00;;;;;;5056132;28;20207;-90
2022/07/06 02:27:54;;;;;;;4.53;1.97;;;14.30;85.70;;;;;;5056174;28;20185;-90
2022/07/06 02:30:20;;;;;;;6.60;2.10;;;14.20;85.80;;;;;;5056094;28;20673;-90
2022/07/06 02:32:45;;;;;;;7.53;2.13;;;14.20;86.10;;;;;;5056330;28;20628;-90
2022/07/06 02:35:11;;;;;;;7.90;2.30;;;14.00;86.50;;;;;;5055820;28;20299;-90
2022/07/06 02:37:37;;;;;;;7.80;2.60;;;14.00;86.80;;;;;;5056135;28;20549;-90
2022/07/06 02:40:03;;;;;;;9.33;1.97;;;14.00;87.00;;;;;;5056330;28;20270;-90
2022/07/06 02:42:28;;;;;;;7.07;2.43;;;14.00;87.00;;;;;;5056284;28;20196;-90
2022/07/06 02:44:54;;;;;;;14.03;2.57;;;13.90;87.40;;;;;;5056517;28;20187;-90
2022/07/06 02:47:19;;;;;;;5.50;2.20;;;13.80;87.50;;;;;;5055855;28;20257;-90
2022/07/06 02:49:45;;;;;;;5.90;2.17;;;13.80;87.50;;;;;;5056008;28;20184;-90
2022/07/06 02:52:10;;;;;;;7.97;2.40;;;13.80;87.40;;;;;;5055486;28;20874;-90
2022/07/06 02:54:36;;;;;;;7.80;2.77;;;13.90;87.30;;;;;;5055682;28;20282;-91
2022/07/06 02:57:02;;;;;;;6.00;2.10;;;13.90;87.10;;;;;;5054942;28;20593;-90
2022/07/06 02:59:27;;;;;;;8.67;2.50;;;13.90;87.10;;;;;;5055869;28;20227;-90
2022/07/06 03:01:53;;;;;;;8.50;2.40;;;13.80;87.20;;;;;;5056476;28;20680;-90
2022/07/06 03:04:18;;;;;;;7.30;2.27;;;13.80;87.30;;;;;;5056929;28;20164;-90
2022/07/06 03:06:44;;;;;;;4.80;1.90;;;13.80;87.30;;;;;;5056391;28;20261;-90
2022/07/06 03:09:09;;;;;;;5.40;2.10;;;13.80;87.10;;;;;;5055491;28;20663;-91
2022/07/06 03:11:38;;;;;;;5.10;2.13;;;13.80;86.90;;;;;;5056623;28;20192;-88
2022/07/06 03:14:04;;;;;;;8.03;2.93;;;13.70;86.90;;;;;;5055493;28;20670;-90
2022/07/06 03:16:30;;;;;;;10.57;2.53;;;13.60;86.80;;;;;;5055368;28;20172;-90
2022/07/06 03:18:56;;;;;;;6.17;2.63;;;13.70;86.80;;;;;;5055401;28;20263;-91
2022/07/06 03:21:21;;;;;;;9.57;3.10;;;13.70;86.60;;;;;;5056694;28;20220;-91
2022/07/06 03:23:47;;;;;;;7.37;2.23;;;13.60;86.70;;;;;;5055641;28;20180;-92
2022/07/06 03:26:12;;;;;;;6.00;2.03;;;13.60;86.90;;;;;;5054999;28;20642;-91
2022/07/06 03:28:38;;;;;;;10.27;2.00;;;13.50;87.40;;;;;;5053859;28;20176;-91
2022/07/06 03:31:03;;;;;;;11.60;2.30;;;13.50;87.40;;;;;;5054952;28;20602;-92
2022/07/06 03:33:29;;;;;;;12.97;2.50;;;13.40;87.10;;;;;;5055050;28;20234;-93
2022/07/06 03:35:54;;;;;;;9.33;2.10;;;13.40;87.10;;;;;;5053688;28;20190;-90
2022/07/06 03:38:20;;;;;;;5.97;2.00;;;13.40;87.10;;;;;;5053682;28;20218;-90
2022/07/06 03:40:46;;;;;;;9.60;2.67;;;13.50;87.00;;;;;;5053648;28;20250;-90
2022/07/06 03:43:11;;;;;;;6.23;1.57;;;13.30;87.20;;;;;;5053561;28;20195;-90
2022/07/06 03:45:37;;;;;;;4.63;1.87;;;13.30;87.90;;;;;;5053472;28;20176;-91
2022/07/06 03:48:02;;;;;;;8.67;2.17;;;13.30;88.30;;;;;;5053445;28;20176;-90
2022/07/06 03:50:28;;;;;;;9.20;2.27;;;13.40;88.20;;;;;;5053325;28;20183;-90
2022/07/06 03:52:53;;;;;;;4.57;1.87;;;13.30;88.30;;;;;;5053293;28;20176;-91
2022/07/06 03:55:19;;;;;;;7.07;2.00;;;13.30;88.30;;;;;;5053252;28;20286;-90
2022/07/06 03:57:44;;;;;;;11.93;2.60;;;13.40;88.40;;;;;;5053366;28;20230;-90
2022/07/06 04:00:11;;;;;;;9.37;2.20;;;13.50;88.30;;;;;;5053946;28;20180;-90
2022/07/06 04:02:36;;;;;;;7.20;2.00;;;13.50;87.90;;;;;;5053181;28;20241;-90
2022/07/06 04:05:02;;;;;;;8.17;2.33;;;13.60;87.80;;;;;;5053696;28;20176;-91
2022/07/06 04:07:28;;;;;;;6.80;2.10;;;13.50;87.90;;;;;;5054639;28;20179;-91
2022/07/06 04:09:53;;;;;;;7.17;2.60;;;13.60;87.50;;;;;;5053248;28;20180;-91
2022/07/06 04:12:19;;;;;;;7.67;2.03;;;13.60;87.50;;;;;;5054153;28;20242;-91
2022/07/06 04:14:45;;;;;;;13.10;2.10;;;13.60;87.10;;;;;;5052935;28;20200;-91
2022/07/06 04:19:54;;;;;;;7.03;2.13;;;13.70;87.40;;;;;;5054329;28;20218;-90
2022/07/06 04:22:20;;;;;;;8.00;2.10;;;13.70;87.10;;;;;;5052677;28;20613;-91
2022/07/06 04:24:45;;;;;;;6.37;2.10;;;13.70;87.30;;;;;;5052607;28;20650;-90
2022/07/06 04:27:11;;;;;;;6.43;2.27;;;13.70;87.30;;;;;;5052514;28;20179;-90
2022/07/06 04:29:36;;;;;;;9.00;2.23;;;13.70;87.00;;;;;;5052631;28;20184;-91
2022/07/06 04:32:02;;;;;;;7.93;2.13;;;13.70;87.10;;;;;;5052537;28;20273;-89
2022/07/06 04:34:28;;;;;;;9.30;2.17;;;13.70;86.80;;;;;;5052933;28;20572;-91
2022/07/06 04:36:53;;;;;;;5.60;1.90;;;13.70;86.30;;;;;;5053632;28;20172;-90
2022/07/06 04:39:19;;;;;;;11.93;2.20;;;13.70;86.30;;;;;;5052513;28;20658;-90
2022/07/06 04:41:45;;;;;;;8.43;2.40;;;13.80;86.80;;;;;;5052424;28;20612;-92
2022/07/06 04:44:10;;;;;;;9.87;2.33;;;13.80;87.20;;;;;;5053582;28;20721;-90
2022/07/06 04:46:36;;;;;;;9.13;2.03;;;13.80;86.70;;;;;;5052353;28;20215;-91
2022/07/06 04:49:01;;;;;;;9.70;2.60;;;13.80;86.20;;;;;;5052359;28;20184;-90
2022/07/06 04:51:27;;;;;;;5.93;1.80;;;13.80;86.30;;;;;;5053625;28;20194;-91
2022/07/06 04:53:52;;;;;;;6.27;2.17;;;13.80;86.30;;;;;;5052202;28;20231;-91
2022/07/06 04:56:18;;;;;;;7.37;1.90;;;13.80;86.20;;;;;;5052240;28;20172;-91
2022/07/06 04:58:43;;;;;;;8.47;2.63;;;13.80;86.10;;;;;;5052095;28;20207;-91
2022/07/06 05:01:09;;;;;;;13.10;2.43;;;13.90;85.70;;;;;;5052188;28;20188;-91
2022/07/06 05:03:39;;;;;;;12.00;2.07;;;13.90;85.20;;;;;;5052205;28;20190;-90
2022/07/06 05:06:05;;;;;;;9.50;2.60;;;14.00;85.10;;;;;;5053302;28;20185;-91
2022/07/06 05:08:31;;;;;;;8.20;2.47;;;14.00;84.90;;;;;;5052202;28;20180;-91
2022/07/06 05:10:57;;;;;;;8.93;2.20;;;14.00;84.80;;;;;;5052306;28;20736;-91
2022/07/06 05:13:22;;;;;;;7.93;1.93;;;14.00;84.80;;;;;;5051911;28;20206;-91
2022/07/06 05:15:48;;;;;;;5.97;2.10;;;14.00;84.90;;;;;;5053558;28;20183;-91
2022/07/06 05:18:13;;;;;;;4.53;1.70;;;14.00;85.30;;;;;;5051975;28;20171;-91
2022/07/06 05:20:39;;;;;;;10.50;2.10;;;14.10;85.90;;;;;;5056142;28;20244;-90
2022/07/06 05:23:05;;;;;;;10.47;2.50;;;14.10;86.50;;;;;;5060061;28;20251;-90
2022/07/06 05:25:31;;;;;;;8.20;2.40;;;14.00;86.70;;;;;;5058406;28;20230;-91
2022/07/06 05:27:56;;;;;;;7.63;2.13;;;14.00;87.00;;;;;;5058564;28;20229;-90
2022/07/06 05:30:22;;;;;;;6.30;2.10;;;14.00;87.20;;;;;;5058464;28;20176;-91
2022/07/06 05:32:47;;;;;;;9.03;2.20;;;14.00;86.90;;;;;;5058558;28;20186;-90
2022/07/06 05:35:13;;;;;;;13.33;2.40;;;14.00;87.00;;;;;;5058506;28;20242;-91
2022/07/06 05:37:39;;;;;;;9.00;2.10;;;14.10;86.80;;;;;;5058561;28;20282;-90
2022/07/06 05:40:05;;;;;;;8.57;1.90;;;14.00;85.70;;;;;;5059599;28;20175;-90
2022/07/06 05:42:30;;;;;;;6.57;2.00;;;14.00;86.10;;;;;;5058681;28;20614;-91
2022/07/06 05:44:56;;;;;;;12.43;2.40;;;14.00;86.40;;;;;;5058429;28;20211;-90
2022/07/06 05:50:12;;;;;;;6.60;2.00;;;13.90;86.80;;;;;;5059731;28;20175;-91
2022/07/06 05:52:44;;;;;;;7.50;1.67;;;13.90;86.70;;;;;;5058385;28;20200;-91
2022/07/06 05:55:13;;;;;;;9.57;2.17;;;14.00;86.90;;;;;;5058327;28;20234;-91
2022/07/06 05:57:40;;;;;;;11.57;2.00;;;14.00;87.00;;;;;;5058269;28;20187;-90
2022/07/06 06:00:06;;;;;;;8.57;2.43;;;14.00;87.20;;;;;;5058253;28;20199;-90
2022/07/06 06:02:42;;;;;;;9.73;2.27;;;14.00;87.50;;;;;;5058177;28;20224;-90
2022/07/06 06:05:09;;;;;;;9.57;2.10;;;14.10;87.60;;;;;;5058149;28;20179;-92
2022/07/06 06:07:37;;;;;;;7.17;1.67;;;14.10;87.40;;;;;;5058522;28;20231;-90
2022/07/06 06:10:08;;;;;;;10.07;2.27;;;14.20;87.40;;;;;;5058292;28;20213;-90
2022/07/06 06:12:34;;;;;;;8.33;2.57;;;14.30;87.40;;;;;;5058061;28;20294;-90
2022/07/06 06:14:59;;;;;;;12.60;2.13;;;14.30;86.30;;;;;;5057991;28;20311;-91
2022/07/06 06:17:25;;;;;;;13.07;3.07;;;14.40;86.20;;;;;;5058071;28;20238;-90
2022/07/06 06:19:51;;;;;;;6.77;1.90;;;14.50;86.20;;;;;;5059291;28;20179;-90
2022/07/06 06:22:16;;;;;;;9.90;2.07;;;14.50;86.00;;;;;;5057993;28;20539;-90
2022/07/06 06:24:42;;;;;;;6.20;1.50;;;14.70;85.90;;;;;;5058007;28;20224;-90
2022/07/06 06:27:07;;;;;;;8.23;1.73;;;14.70;84.90;;;;;;5057959;28;20172;-90
2022/07/06 06:29:33;;;;;;;5.63;1.83;;;14.70;84.90;;;;;;5057938;28;20229;-90
2022/07/06 06:31:58;;;;;;;10.40;2.40;;;14.80;84.60;;;;;;5056525;28;20249;-90
2022/07/06 06:34:24;;;;;;;8.70;2.00;;;14.80;84.30;;;;;;5054710;28;20199;-90
2022/07/06 06:36:50;;;;;;;7.07;1.70;;;14.80;84.60;;;;;;5054731;28;20542;-90
2022/07/06 06:39:16;;;;;;;6.17;1.97;;;14.80;84.50;;;;;;5054765;28;20245;-90
2022/07/06 06:41:41;;;;;;;12.00;2.10;;;14.80;85.00;;;;;;5055843;28;20198;-90
2022/07/06 06:44:07;;;;;;;8.67;1.70;;;14.80;85.20;;;;;;5055814;28;20167;-91
2022/07/06 06:46:33;;;;;;;8.63;1.87;;;14.90;84.50;;;;;;5054568;28;20184;-90
2022/07/06 06:48:58;;;;;;;6.70;1.73;;;14.80;83.90;;;;;;5054503;28;20531;-90
2022/07/06 06:51:24;;;;;;;8.43;1.90;;;14.90;83.70;;;;;;5054440;28;20390;-89
2022/07/06 06:53:49;;;;;;;9.90;1.80;;;15.00;83.30;;;;;;5054476;28;20203;-90
2022/07/06 06:56:15;;;;;;;5.87;1.33;;;15.10;83.20;;;;;;5054339;28;20731;-90
2022/07/06 06:58:41;;;;;;;3.57;1.33;;;15.00;82.30;;;;;;5054595;28;20646;-90
2022/07/06 07:01:06;;;;;;;5.77;1.83;;;14.80;82.30;;;;;;5054555;28;20227;-90
2022/07/06 07:03:32;;;;;;;3.93;1.67;;;14.80;82.70;;;;;;5054686;28;20645;-90
2022/07/06 07:05:57;;;;;;;7.37;2.20;;;14.80;83.10;;;;;;5054958;28;20230;-90
2022/07/06 07:08:23;;;;;;;3.67;1.53;;;14.60;83.90;;;;;;5055813;28;20305;-90
2022/07/06 07:10:49;;;;;;;6.03;1.80;;;14.50;84.60;;;;;;5053971;28;20192;-89
2022/07/06 07:13:14;;;;;;;9.97;1.90;;;14.50;84.90;;;;;;5054123;28;20211;-88
2022/07/06 07:15:40;;;;;;;11.23;1.60;;;14.50;85.40;;;;;;5054008;28;20278;-89
2022/07/06 07:18:06;;;;;;;9.87;1.67;;;14.60;85.70;;;;;;5054108;28;20282;-89
2022/07/06 07:20:33;;;;;;;8.27;1.90;;;14.50;85.90;;;;;;5054026;28;20179;-89
2022/07/06 07:22:59;;;;;;;6.40;1.60;;;14.50;86.30;;;;;;5054033;28;20263;-89
2022/07/06 07:25:25;;;;;;;5.13;1.67;;;14.60;86.40;;;;;;5054152;28;20261;-89
2022/07/06 07:27:50;;;;;;;3.30;1.47;;;14.80;86.40;;;;;;5053855;28;20180;-89
2022/07/06 07:30:16;;;;;;;4.00;1.70;;;14.80;86.40;;;;;;5053659;28;20175;-89
2022/07/06 07:32:42;;;;;;;3.13;1.20;;;14.90;86.30;;;;;;5053699;28;20203;-89
2022/07/06 07:35:08;;;;;;;6.17;1.47;;;14.90;86.30;;;;;;5053931;28;20686;-89
2022/07/06 07:37:33;;;;;;;5.93;1.47;;;14.70;85.50;;;;;;5053719;28;20172;-89
2022/07/06 07:39:59;;;;;;;4.97;1.27;;;14.50;86.10;;;;;;5054379;28;20179;-89
2022/07/06 07:42:25;;;;;;;5.30;1.30;;;14.70;86.40;;;;;;5053563;28;20670;-88
2022/07/06 07:44:51;;;;;;;4.47;1.60;;;14.80;86.40;;;;;;5053289;28;20230;-90
2022/07/06 07:47:16;;;;;;;5.93;1.70;;;14.80;86.30;;;;;;5054716;28;20172;-90
2022/07/06 07:49:42;;;;;;;3.90;1.63;;;14.30;86.40;;;;;;5053399;28;20688;-91
2022/07/06 07:52:08;;;;;;;2.93;1.10;;;14.20;86.40;;;;;;5053406;28;20230;-90
2022/07/06 07:54:33;;;;;;;7.40;1.27;;;14.30;86.40;;;;;;5053318;28;20200;-89
2022/07/06 07:56:59;;;;;;;3.33;1.50;;;14.50;86.40;;;;;;5054700;28;20639;-89
2022/07/06 07:59:25;;;;;;;3.33;1.50;;;14.70;86.50;;;;;;5053209;28;20543;-90
2022/07/06 08:01:51;;;;;;;3.77;1.43;;;14.80;86.40;;;;;;5053108;28;20203;-90
2022/07/06 08:04:16;;;;;;;5.10;1.80;;;14.90;86.50;;;;;;5053440;28;20271;-88
2022/07/06 08:06:42;;;;;;;5.15;1.60;;;15.10;86.70;;;;;;5053100;28;20175;-90
2022/07/06 08:09:08;;;;;;;4.85;1.65;;;15.20;86.90;;;;;;5053022;28;20255;-89
2022/07/06 08:11:34;;;;;;;4.30;1.57;;;15.30;86.70;;;;;;5052912;28;20203;-89
2022/07/06 08:14:00;;;;;;;6.07;1.70;;;15.40;86.80;;;;;;5052862;28;20253;-90
2022/07/06 08:16:26;;;;;;;4.10;1.20;;;15.40;86.00;;;;;;5053075;28;20175;-88
2022/07/06 08:18:51;;;;;;;5.75;1.30;;;15.50;85.90;;;;;;5054138;28;20576;-90
2022/07/06 08:21:17;;;;;;;3.58;1.20;;;15.50;85.20;;;;;;5053456;28;20677;-91
2022/07/06 08:23:43;;;;;;;5.07;1.42;;;15.60;84.70;;;;;;5053109;28;20645;-89
2022/07/06 08:26:09;;;;;;;4.75;1.25;;;15.70;84.70;;;;;;5052590;28;20201;-89
2022/07/06 08:28:34;;;;;;;5.45;1.52;;;15.90;84.60;;;;;;5052801;28;20263;-89
2022/07/06 08:31:00;;;;;;;3.70;1.17;;;16.00;84.30;;;;;;5052625;28;20740;-90
2022/07/06 08:33:26;;;;;;;2.50;1.10;;;16.20;84.40;;;;;;5052642;28;20187;-88
2022/07/06 08:35:51;;;;;;;3.97;1.13;;;16.30;83.80;;;;;;5053816;28;20172;-90
2022/07/06 08:38:17;;;;;;;5.97;1.02;;;16.30;83.40;;;;;;5053143;28;20673;-89
2022/07/06 08:40:47;;;;;;;5.70;1.23;;;16.30;82.20;;;;;;5053904;28;20314;-89
2022/07/06 08:43:14;;;;;;;4.70;1.30;;;16.30;81.80;;;;;;5053236;28;20258;-89
2022/07/06 08:45:41;;;;;;;5.63;1.77;;;16.50;82.10;;;;;;5053954;28;20221;-89
2022/07/06 08:48:07;;;;;;;5.88;1.63;;;16.70;82.20;;;;;;5054560;28;20182;-88
2022/07/06 08:50:36;;;;;;;4.32;1.70;;;16.80;82.20;;;;;;5052691;28;20178;-90
2022/07/06 08:53:02;;;;;;;4.13;1.35;;;17.10;82.20;;;;;;5052294;28;20180;-90
2022/07/06 08:55:28;;;;;;;5.88;1.40;;;17.30;81.40;;;;;;5051468;28;20295;-90
2022/07/06 08:57:55;;;;;;;4.60;1.60;;;17.20;79.60;;;;;;5052191;28;20274;-90
2022/07/06 09:00:22;;;;;;;5.57;1.63;;;17.20;79.00;;;;;;5052247;28;20176;-88
2022/07/06 09:02:50;;;;;;;2.42;1.55;;;17.20;79.80;;;;;;5055050;28;20259;-89
2022/07/06 09:05:17;;;;;;;2.13;1.40;;;17.30;80.10;;;;;;5054453;28;20198;-88
2022/07/06 09:07:48;;;;;;;2.42;1.33;;;17.40;80.10;;;;;;5052685;28;20175;-90
2022/07/06 09:10:16;;;;;;;3.33;1.23;;;17.30;77.30;;;;;;5053263;28;20524;-88
2022/07/06 09:12:42;;;;;;;3.03;1.27;;;17.40;76.70;;;;;;5053951;28;20199;-87
2022/07/06 09:15:08;;;;;;;3.67;1.05;;;17.60;78.00;;;;;;5054169;28;20248;-87
2022/07/06 09:17:38;;;;;;;3.95;1.45;;;17.80;77.00;;;;;;5054773;28;20255;-88
2022/07/06 09:20:13;;;;;;;2.75;1.40;;;17.80;75.50;;;;;;5053437;28;20275;-87
2022/07/06 09:22:40;;;;;;;5.85;1.27;;;17.40;76.80;;;;;;5054037;28;20532;-89
2022/07/06 09:25:08;;;;;;;8.27;1.63;;;17.40;76.90;;;;;;5052210;28;20196;-88
2022/07/06 09:27:38;;;;;;;5.30;1.08;;;17.50;76.70;;;;;;5053517;28;20167;-88
2022/07/06 09:30:06;;;;;;;2.90;1.17;;;17.60;75.60;;;;;;5052509;28;20330;-89
2022/07/06 09:32:38;;;;;;;2.83;1.15;;;17.40;73.90;;;;;;5052392;28;20200;-88
2022/07/06 09:35:04;;;;;;;3.03;1.30;;;17.00;75.60;;;;;;5053226;28;20204;-87
2022/07/06 09:37:30;;;;;;;6.30;1.17;;;17.10;75.10;;;;;;5052774;28;20542;-87
2022/07/06 09:39:55;;;;;;;3.88;1.17;;;17.10;74.40;;;;;;5052267;28;20179;-87
2022/07/06 09:42:26;;;;;;;4.28;0.77;;;16.70;75.30;;;;;;5052277;28;20200;-87
2022/07/06 09:44:52;;;;;;;2.05;0.80;;;16.10;77.00;;;;;;5052418;28;20524;-87
2022/07/06 09:47:18;;;;;;;2.17;0.75;;;15.80;79.20;;;;;;5052024;28;20180;-88
2022/07/06 09:49:47;;;;;;;3.70;1.02;;;15.70;79.40;;;;;;5053164;28;20176;-89
2022/07/06 09:52:13;;;;;;;2.08;1.23;;;15.50;80.00;;;;;;5052631;28;20228;-87
2022/07/06 09:54:40;;;;;;;2.60;1.10;;;15.60;80.90;;;;;;5054022;28;20204;-89
2022/07/06 09:57:07;;;;;;;5.10;1.13;;;15.60;81.20;;;;;;5054525;28;20176;-88
2022/07/06 09:59:35;;;;;;;4.20;1.00;;;15.60;81.50;;;;;;5053341;28;20180;-88
2022/07/06 10:02:03;;;;;;;2.47;0.98;;;15.60;81.70;;;;;;5055855;28;20195;-87
2022/07/06 10:04:29;;;;;;;3.17;1.02;;;15.70;81.20;;;;;;5052309;28;20222;-88
2022/07/06 10:06:56;;;;;;;2.67;1.00;;;15.90;81.10;;;;;;5053373;28;20176;-90
2022/07/06 10:09:24;;;;;;;4.00;1.33;;;16.10;80.50;;;;;;5055657;28;20203;-90
2022/07/06 10:11:53;;;;;;;8.07;0.93;;;16.20;80.20;;;;;;5055461;28;20203;-89
2022/07/06 10:14:22;;;;;;;3.75;1.15;;;16.30;79.90;;;;;;5055222;28;20204;-89
2022/07/06 10:16:48;;;;;;;5.63;1.80;;;16.50;79.70;;;;;;5055473;28;20198;-89
2022/07/06 10:19:15;;;;;;;3.67;1.20;;;16.50;78.20;;;;;;5055405;28;20602;-90
2022/07/06 10:21:41;;;;;;;6.05;1.27;;;16.70;78.10;;;;;;5055474;28;20223;-89
2022/07/06 10:24:08;;;;;;;3.28;0.98;;;16.80;78.20;;;;;;5055832;28;20188;-89
2022/07/06 10:26:35;;;;;;;2.90;1.08;;;17.00;77.70;;;;;;5055486;28;20171;-89
2022/07/06 10:29:03;;;;;;;6.40;1.00;;;17.30;78.90;;;;;;5055291;28;20190;-89
2022/07/06 10:31:29;;;;;;;2.53;1.20;;;17.20;76.00;;;;;;5055587;28;20249;-89
2022/07/06 10:34:00;;;;;;;4.13;1.30;;;17.60;76.00;;;;;;5055359;28;20229;-90
2022/07/06 10:36:27;;;;;;;7.05;1.45;;;17.90;70.00;;;;;;5055370;28;20176;-90
2022/07/06 10:38:53;;;;;;;5.05;1.17;;;17.70;68.80;;;;;;5056677;28;20183;-88
2022/07/06 10:41:31;;;;;;;5.20;1.23;;;18.30;69.70;;;;;;5056323;28;20192;-90
2022/07/06 10:43:58;;;;;;;7.57;1.13;;;18.10;66.70;;;;;;5056465;28;20522;-89
2022/07/06 10:46:28;;;;;;;5.10;1.25;;;17.50;70.60;;;;;;5054918;28;20671;-89
2022/07/06 10:48:54;;;;;;;4.95;1.55;;;17.40;70.70;;;;;;5056174;28;20563;-88
2022/07/06 10:51:28;;;;;;;4.40;0.93;;;17.30;70.10;;;;;;5055214;28;20200;-88
2022/07/06 10:54:03;;;;;;;5.07;1.17;;;17.50;69.30;;;;;;5054947;28;20199;-89
2022/07/06 10:56:50;;;;;;;4.20;1.30;;;17.00;70.10;;;;;;5056798;28;20575;-89
2022/07/06 10:59:17;;;;;;;6.68;1.92;;;16.80;72.00;;;;;;5054583;28;20164;-90
2022/07/06 11:02:13;;;;;;;4.63;1.10;;;17.00;73.10;;;;;;5054581;28;20283;-88
2022/07/06 11:04:39;;;;;;;9.38;1.95;;;17.00;72.20;;;;;;5046305;28;20180;-88
2022/07/06 11:07:10;;;;;;;5.90;1.55;;;17.20;72.00;;;;;;5055932;28;20167;-89
2022/07/06 11:09:37;;;;;;;5.85;1.50;;;17.40;70.50;;;;;;5054799;28;20175;-89
2022/07/06 11:12:16;;;;;;;4.20;0.93;;;17.50;71.20;;;;;;5054514;28;20199;-89
2022/07/06 11:14:42;;;;;;;5.30;1.00;;;17.60;68.90;;;;;;5054631;28;20203;-88
2022/07/06 11:17:10;;;;;;;6.07;1.25;;;17.90;69.70;;;;;;5054715;28;20179;-89
2022/07/06 11:19:36;;;;;;;3.05;0.90;;;17.80;66.50;;;;;;5053801;28;20176;-88
2022/07/06 11:22:09;;;;;;;5.80;1.20;;;17.80;67.10;;;;;;5055651;28;20195;-89
2022/07/06 11:24:40;;;;;;;6.15;1.23;;;18.00;67.20;;;;;;5054430;28;20673;-90
2022/07/06 11:27:08;;;;;;;3.45;0.77;;;18.40;65.00;;;;;;5055350;28;20195;-89
2022/07/06 11:29:38;;;;;;;4.55;0.85;;;18.70;64.60;;;;;;5054284;28;20203;-88
2022/07/06 11:32:05;;;;;;;5.55;1.08;;;18.40;64.70;;;;;;5055442;28;20195;-88
2022/07/06 11:34:32;;;;;;;2.75;0.90;;;18.40;65.70;;;;;;5054101;28;20298;-88
2022/07/06 11:37:03;;;;;;;2.85;0.80;;;18.20;64.80;;;;;;5054509;28;20198;-90
2022/07/06 11:39:34;;;;;;;2.58;0.80;;;19.00;65.30;;;;;;5055182;28;20580;-88
2022/07/06 11:42:01;;;;;;;3.60;0.95;;;19.20;65.70;;;;;;5055207;28;20184;-89
2022/07/06 11:44:27;;;;;;;4.03;0.77;;;18.80;62.00;;;;;;5054390;28;20176;-89
2022/07/06 11:46:56;;;;;;;2.15;1.00;;;19.10;64.60;;;;;;5053947;28;20230;-88
2022/07/06 11:49:22;;;;;;;1.33;0.63;;;19.20;61.90;;;;;;5053899;28;20176;-88
2022/07/06 11:51:48;;;;;;;3.53;0.73;;;18.70;60.70;;;;;;5055188;28;20689;-89
2022/07/06 11:54:19;;;;;;;3.85;0.90;;;18.20;63.80;;;;;;5054877;28;20203;-88
2022/07/06 11:56:56;;;;;;;0.80;0.70;;;18.50;62.00;;;;;;5054043;28;20178;-89
2022/07/06 11:59:24;;;;;;;2.97;0.70;;;18.10;61.10;;;;;;5055038;28;20207;-89
2022/07/06 12:01:57;;;;;;;7.38;1.20;;;18.10;64.30;;;;;;5053693;28;20678;-89
2022/07/06 12:04:24;;;;;;;2.38;0.60;;;18.60;63.60;;;;;;5055422;28;20167;-89
2022/07/06 12:06:50;;;;;;;2.35;0.90;;;18.30;63.30;;;;;;5053552;28;20259;-89
2022/07/06 12:09:15;;;;;;;5.07;1.40;;;18.50;64.30;;;;;;5053563;28;20271;-89
2022/07/06 12:11:44;;;;;;;2.53;0.70;;;18.50;64.20;;;;;;5053333;28;20202;-89
2022/07/06 12:14:21;;;;;;;3.85;1.05;;;18.20;65.20;;;;;;5054593;28;20230;-89
2022/07/06 12:16:48;;;;;;;6.95;1.25;;;18.20;66.30;;;;;;5053462;28;20663;-89
2022/07/06 12:19:14;;;;;;;4.20;1.05;;;18.20;67.60;;;;;;5053130;28;20182;-88
2022/07/06 12:21:48;;;;;;;6.13;1.50;;;18.40;66.70;;;;;;5053252;28;20188;-88
2022/07/06 12:24:18;;;;;;;4.75;1.20;;;18.90;66.40;;;;;;5054366;28;20188;-89
2022/07/06 12:26:43;;;;;;;5.32;0.90;;;19.10;63.50;;;;;;5053566;28;20196;-88
2022/07/06 12:29:13;;;;;;;4.78;1.05;;;18.80;62.80;;;;;;5052818;28;20255;-88
2022/07/06 12:31:40;;;;;;;3.67;1.00;;;18.30;64.50;;;;;;5053521;28;20606;-89
2022/07/06 12:34:14;;;;;;;2.17;0.82;;;18.20;63.80;;;;;;5054252;28;20201;-89
2022/07/06 12:36:48;;;;;;;6.50;1.20;;;18.30;63.00;;;;;;5053365;28;20198;-88
2022/07/06 12:39:15;;;;;;;5.18;1.10;;;18.80;63.20;;;;;;5053009;28;20172;-89
2022/07/06 12:41:50;;;;;;;6.22;1.65;;;19.20;61.40;;;;;;5052824;28;20192;-89
2022/07/06 12:44:22;;;;;;;2.90;0.90;;;19.60;62.30;;;;;;5052966;28;20258;-88
2022/07/06 12:46:49;;;;;;;3.20;1.20;;;19.20;62.40;;;;;;5054648;28;20160;-89
2022/07/06 12:49:22;;;;;;;3.00;1.08;;;19.70;60.70;;;;;;5052749;28;20218;-88